sensor_id;sensor_type;location;lat;lon;timestamp;pressure;altitude;pressure_sealevel;temperature;humidity
62634;BME280;48704;50.534;6.442;2023-04-02T00:08:55;94587.97;;;5.18;100.00
62634;BME280;48704;50.534;6.442;2023-04-02T00:11:35;94588.75;;;5.10;100.00
62634;BME280;48704;50.534;6.442;2023-04-02T00:14:04;94595.69;;;5.05;100.00
62634;BME280;48704;50.534;6.442;2023-04-02T00:16:30;94599.97;;;5.06;100.00
62634;BME280;48704;50.534;6.442;2023-04-02T00:18:58;94599.69;;;4.95;100.00
62634;BME280;48704;50.534;6.442;2023-04-02T00:21:31;94608.91;;;4.92;100.00
62634;BME280;48704;50.534;6.442;2023-04-02T00:23:59;94615.50;;;4.85;100.00
62634;BME280;48704;50.534;6.442;2023-04-02T00:26:29;94607.44;;;4.63;100.00
62634;BME280;48704;50.534;6.442;2023-04-02T00:28:56;94612.22;;;4.63;100.00
62634;BME280;48704;50.534;6.442;2023-04-02T00:31:22;94622.78;;;4.64;100.00
62634;BME280;48704;50.534;6.442;2023-04-02T00:33:48;94618.19;;;4.70;100.00
62634;BME280;48704;50.534;6.442;2023-04-02T00:36:14;94624.63;;;4.67;100.00
62634;BME280;48704;50.534;6.442;2023-04-02T00:38:40;94634.59;;;4.56;100.00
62634;BME280;48704;50.534;6.442;2023-04-02T00:41:13;94633.50;;;4.53;100.00
62634;BME280;48704;50.534;6.442;2023-04-02T00:43:43;94634.47;;;4.41;100.00
62634;BME280;48704;50.534;6.442;2023-04-02T00:46:14;94637.69;;;4.40;100.00
62634;BME280;48704;50.534;6.442;2023-04-02T00:48:41;94638.31;;;4.44;100.00
62634;BME280;48704;50.534;6.442;2023-04-02T00:51:21;94640.28;;;4.34;100.00
62634;BME280;48704;50.534;6.442;2023-04-02T00:53:49;94643.97;;;4.40;100.00
62634;BME280;48704;50.534;6.442;2023-04-02T00:56:22;94642.13;;;4.28;100.00
62634;BME280;48704;50.534;6.442;2023-04-02T00:58:52;94645.97;;;4.30;100.00
62634;BME280;48704;50.534;6.442;2023-04-02T01:01:23;94650.09;;;4.26;100.00
62634;BME280;48704;50.534;6.442;2023-04-02T01:04:00;94652.25;;;4.31;100.00
62634;BME280;48704;50.534;6.442;2023-04-02T01:06:35;94659.28;;;4.32;100.00
62634;BME280;48704;50.534;6.442;2023-04-02T01:09:13;94657.44;;;4.38;100.00
62634;BME280;48704;50.534;6.442;2023-04-02T01:22:53;94671.97;;;4.11;100.00
62634;BME280;48704;50.534;6.442;2023-04-02T01:25:29;94674.59;;;4.06;100.00
62634;BME280;48704;50.534;6.442;2023-04-02T01:28:23;94681.94;;;3.99;100.00
62634;BME280;48704;50.534;6.442;2023-04-02T01:30:54;94662.16;;;4.10;100.00
62634;BME280;48704;50.534;6.442;2023-04-02T01:33:28;94682.69;;;3.91;100.00
62634;BME280;48704;50.534;6.442;2023-04-02T01:36:22;94685.16;;;4.07;100.00
62634;BME280;48704;50.534;6.442;2023-04-02T01:39:05;94688.97;;;4.10;100.00
62634;BME280;48704;50.534;6.442;2023-04-02T01:41:44;94686.06;;;3.95;100.00
62634;BME280;48704;50.534;6.442;2023-04-02T01:44:28;94698.00;;;3.92;100.00
62634;BME280;48704;50.534;6.442;2023-04-02T01:46:56;94706.22;;;3.83;100.00
62634;BME280;48704;50.534;6.442;2023-04-02T01:49:25;94712.81;;;3.85;100.00
62634;BME280;48704;50.534;6.442;2023-04-02T01:51:54;94710.66;;;3.71;100.00
62634;BME280;48704;50.534;6.442;2023-04-02T01:54:22;94718.91;;;3.71;100.00
62634;BME280;48704;50.534;6.442;2023-04-02T01:56:57;94714.63;;;3.70;100.00
62634;BME280;48704;50.534;6.442;2023-04-02T01:59:26;94715.03;;;3.59;100.00
62634;BME280;48704;50.534;6.442;2023-04-02T02:02:00;94720.38;;;3.54;100.00
62634;BME280;48704;50.534;6.442;2023-04-02T02:04:28;94729.31;;;3.67;100.00
62634;BME280;48704;50.534;6.442;2023-04-02T02:06:55;94735.69;;;3.55;100.00
62634;BME280;48704;50.534;6.442;2023-04-02T02:09:25;94739.66;;;3.54;100.00
62634;BME280;48704;50.534;6.442;2023-04-02T02:11:52;94739.78;;;3.50;100.00
62634;BME280;48704;50.534;6.442;2023-04-02T02:14:20;94754.50;;;3.56;100.00
62634;BME280;48704;50.534;6.442;2023-04-02T02:16:46;94747.09;;;3.44;100.00
62634;BME280;48704;50.534;6.442;2023-04-02T02:19:28;94753.94;;;3.61;100.00
62634;BME280;48704;50.534;6.442;2023-04-02T02:22:12;94760.16;;;3.53;100.00
62634;BME280;48704;50.534;6.442;2023-04-02T02:24:44;94768.38;;;3.44;100.00
62634;BME280;48704;50.534;6.442;2023-04-02T02:32:17;94768.19;;;3.69;100.00
62634;BME280;48704;50.534;6.442;2023-04-02T02:35:11;94774.63;;;3.44;100.00
62634;BME280;48704;50.534;6.442;2023-04-02T02:37:42;94781.28;;;3.56;100.00
62634;BME280;48704;50.534;6.442;2023-04-02T02:40:22;94788.72;;;3.46;100.00
62634;BME280;48704;50.534;6.442;2023-04-02T02:42:55;94790.78;;;3.55;100.00
62634;BME280;48704;50.534;6.442;2023-04-02T02:45:25;94795.38;;;3.58;100.00
62634;BME280;48704;50.534;6.442;2023-04-02T02:47:53;94799.88;;;3.43;100.00
62634;BME280;48704;50.534;6.442;2023-04-02T02:50:25;94809.09;;;3.49;100.00
62634;BME280;48704;50.534;6.442;2023-04-02T02:52:54;94800.25;;;3.54;100.00
62634;BME280;48704;50.534;6.442;2023-04-02T02:55:23;94811.41;;;3.50;100.00
62634;BME280;48704;50.534;6.442;2023-04-02T03:00:31;94825.63;;;3.49;100.00
62634;BME280;48704;50.534;6.442;2023-04-02T03:02:58;94827.16;;;3.50;100.00
62634;BME280;48704;50.534;6.442;2023-04-02T03:05:26;94830.16;;;3.43;100.00
62634;BME280;48704;50.534;6.442;2023-04-02T03:07:54;94831.38;;;3.42;100.00
62634;BME280;48704;50.534;6.442;2023-04-02T03:13:29;94836.91;;;3.42;100.00
62634;BME280;48704;50.534;6.442;2023-04-02T03:16:21;94849.44;;;3.43;100.00
62634;BME280;48704;50.534;6.442;2023-04-02T03:18:51;94845.47;;;3.44;100.00
62634;BME280;48704;50.534;6.442;2023-04-02T03:21:24;94864.44;;;3.42;100.00
62634;BME280;48704;50.534;6.442;2023-04-02T03:26:38;94868.69;;;3.33;100.00
62634;BME280;48704;50.534;6.442;2023-04-02T03:32:02;94872.91;;;3.25;100.00
62634;BME280;48704;50.534;6.442;2023-04-02T03:34:37;94881.72;;;3.20;100.00
62634;BME280;48704;50.534;6.442;2023-04-02T03:37:07;94885.50;;;3.35;100.00
62634;BME280;48704;50.534;6.442;2023-04-02T03:39:44;94885.44;;;3.26;100.00
62634;BME280;48704;50.534;6.442;2023-04-02T03:42:15;94895.53;;;3.08;100.00
62634;BME280;48704;50.534;6.442;2023-04-02T03:47:19;94902.34;;;3.38;100.00
62634;BME280;48704;50.534;6.442;2023-04-02T03:49:51;94904.78;;;3.35;100.00
62634;BME280;48704;50.534;6.442;2023-04-02T03:52:26;94909.50;;;3.35;100.00
62634;BME280;48704;50.534;6.442;2023-04-02T03:54:55;94911.50;;;3.34;100.00
62634;BME280;48704;50.534;6.442;2023-04-02T04:03:47;94927.31;;;3.21;100.00
62634;BME280;48704;50.534;6.442;2023-04-02T04:06:28;94938.56;;;3.14;100.00
62634;BME280;48704;50.534;6.442;2023-04-02T04:08:57;94948.38;;;3.15;100.00
62634;BME280;48704;50.534;6.442;2023-04-02T04:11:33;94957.19;;;2.97;100.00
62634;BME280;48704;50.534;6.442;2023-04-02T04:14:12;94956.75;;;3.12;100.00
62634;BME280;48704;50.534;6.442;2023-04-02T04:20:02;94964.13;;;3.02;100.00
62634;BME280;48704;50.534;6.442;2023-04-02T04:22:32;94969.53;;;3.06;100.00
62634;BME280;48704;50.534;6.442;2023-04-02T04:25:03;94980.41;;;3.09;100.00
62634;BME280;48704;50.534;6.442;2023-04-02T04:27:37;94979.38;;;2.94;100.00
62634;BME280;48704;50.534;6.442;2023-04-02T04:30:29;94993.69;;;2.89;100.00
62634;BME280;48704;50.534;6.442;2023-04-02T04:33:11;94989.50;;;2.97;100.00
62634;BME280;48704;50.534;6.442;2023-04-02T04:35:45;95007.31;;;2.92;100.00
62634;BME280;48704;50.534;6.442;2023-04-02T04:38:16;94998.53;;;2.85;100.00
62634;BME280;48704;50.534;6.442;2023-04-02T04:40:54;95013.94;;;2.95;100.00
62634;BME280;48704;50.534;6.442;2023-04-02T04:43:32;95014.13;;;2.62;100.00
62634;BME280;48704;50.534;6.442;2023-04-02T04:46:08;95011.19;;;2.69;100.00
62634;BME280;48704;50.534;6.442;2023-04-02T04:48:38;95009.84;;;2.87;100.00
62634;BME280;48704;50.534;6.442;2023-04-02T04:51:40;95016.56;;;2.60;100.00
62634;BME280;48704;50.534;6.442;2023-04-02T04:54:11;95028.00;;;2.72;100.00
62634;BME280;48704;50.534;6.442;2023-04-02T04:56:37;95026.47;;;2.71;100.00
62634;BME280;48704;50.534;6.442;2023-04-02T04:59:14;95036.69;;;2.70;100.00
62634;BME280;48704;50.534;6.442;2023-04-02T05:01:52;95039.13;;;2.81;100.00
62634;BME280;48704;50.534;6.442;2023-04-02T05:04:39;95049.81;;;2.79;100.00
62634;BME280;48704;50.534;6.442;2023-04-02T05:07:18;95055.53;;;2.72;100.00
62634;BME280;48704;50.534;6.442;2023-04-02T05:09:51;95062.00;;;2.65;100.00
62634;BME280;48704;50.534;6.442;2023-04-02T05:15:19;95073.13;;;2.61;100.00
62634;BME280;48704;50.534;6.442;2023-04-02T05:18:22;95083.91;;;2.68;100.00
62634;BME280;48704;50.534;6.442;2023-04-02T05:21:03;95087.63;;;2.49;100.00
62634;BME280;48704;50.534;6.442;2023-04-02T05:23:45;95104.03;;;2.65;100.00
62634;BME280;48704;50.534;6.442;2023-04-02T05:26:14;95103.94;;;2.56;100.00
62634;BME280;48704;50.534;6.442;2023-04-02T05:28:50;95109.78;;;2.58;100.00
62634;BME280;48704;50.534;6.442;2023-04-02T05:32:02;95117.56;;;2.47;100.00
62634;BME280;48704;50.534;6.442;2023-04-02T05:34:28;95119.75;;;2.52;100.00
62634;BME280;48704;50.534;6.442;2023-04-02T05:36:56;95129.03;;;2.58;100.00
62634;BME280;48704;50.534;6.442;2023-04-02T05:39:24;95129.31;;;2.60;100.00
62634;BME280;48704;50.534;6.442;2023-04-02T05:42:00;95127.47;;;2.57;100.00
62634;BME280;48704;50.534;6.442;2023-04-02T05:44:30;95126.56;;;2.48;100.00
62634;BME280;48704;50.534;6.442;2023-04-02T05:47:04;95138.88;;;2.43;100.00
62634;BME280;48704;50.534;6.442;2023-04-02T05:52:05;95148.66;;;2.44;100.00
62634;BME280;48704;50.534;6.442;2023-04-02T05:54:38;95154.22;;;2.28;100.00
62634;BME280;48704;50.534;6.442;2023-04-02T05:57:11;95150.84;;;2.37;100.00
62634;BME280;48704;50.534;6.442;2023-04-02T05:59:58;95157.00;;;2.41;100.00
62634;BME280;48704;50.534;6.442;2023-04-02T06:02:41;95166.03;;;2.41;100.00
62634;BME280;48704;50.534;6.442;2023-04-02T06:05:20;95171.00;;;2.46;100.00
62634;BME280;48704;50.534;6.442;2023-04-02T06:07:55;95171.00;;;2.46;100.00
62634;BME280;48704;50.534;6.442;2023-04-02T06:10:34;95167.91;;;2.44;100.00
62634;BME280;48704;50.534;6.442;2023-04-02T06:13:09;95182.88;;;2.43;100.00
62634;BME280;48704;50.534;6.442;2023-04-02T06:15:40;95183.75;;;2.40;100.00
62634;BME280;48704;50.534;6.442;2023-04-02T06:18:22;95185.09;;;2.48;100.00
62634;BME280;48704;50.534;6.442;2023-04-02T06:20:48;95194.78;;;2.53;100.00
62634;BME280;48704;50.534;6.442;2023-04-02T06:23:31;95208.72;;;2.46;100.00
62634;BME280;48704;50.534;6.442;2023-04-02T06:26:24;95209.50;;;2.46;100.00
62634;BME280;48704;50.534;6.442;2023-04-02T06:31:26;95229.44;;;2.50;100.00
62634;BME280;48704;50.534;6.442;2023-04-02T06:33:52;95229.59;;;2.59;100.00
62634;BME280;48704;50.534;6.442;2023-04-02T06:36:22;95232.13;;;2.66;100.00
62634;BME280;48704;50.534;6.442;2023-04-02T06:38:49;95230.22;;;2.63;100.00
62634;BME280;48704;50.534;6.442;2023-04-02T06:41:23;95236.59;;;2.60;100.00
62634;BME280;48704;50.534;6.442;2023-04-02T06:44:15;95243.88;;;2.54;100.00
62634;BME280;48704;50.534;6.442;2023-04-02T06:46:46;95244.03;;;2.47;100.00
62634;BME280;48704;50.534;6.442;2023-04-02T06:49:18;95251.19;;;2.45;100.00
62634;BME280;48704;50.534;6.442;2023-04-02T06:51:48;95254.38;;;2.43;100.00
62634;BME280;48704;50.534;6.442;2023-04-02T06:54:16;95261.22;;;2.51;100.00
62634;BME280;48704;50.534;6.442;2023-04-02T06:56:45;95266.56;;;2.58;100.00
62634;BME280;48704;50.534;6.442;2023-04-02T06:59:13;95279.09;;;2.59;100.00
62634;BME280;48704;50.534;6.442;2023-04-02T07:01:44;95288.34;;;2.65;100.00
62634;BME280;48704;50.534;6.442;2023-04-02T07:04:11;95295.38;;;2.66;100.00
62634;BME280;48704;50.534;6.442;2023-04-02T07:06:36;95299.69;;;2.67;100.00
62634;BME280;48704;50.534;6.442;2023-04-02T07:09:03;95298.19;;;2.50;100.00
62634;BME280;48704;50.534;6.442;2023-04-02T07:11:28;95304.47;;;2.51;100.00
62634;BME280;48704;50.534;6.442;2023-04-02T07:13:54;95300.34;;;2.43;100.00
62634;BME280;48704;50.534;6.442;2023-04-02T07:16:21;95307.22;;;2.34;100.00
62634;BME280;48704;50.534;6.442;2023-04-02T07:18:49;95321.06;;;2.31;100.00
62634;BME280;48704;50.534;6.442;2023-04-02T07:21:14;95319.94;;;2.28;100.00
62634;BME280;48704;50.534;6.442;2023-04-02T07:23:40;95327.50;;;2.41;100.00
62634;BME280;48704;50.534;6.442;2023-04-02T07:26:07;95335.31;;;2.42;100.00
62634;BME280;48704;50.534;6.442;2023-04-02T07:28:33;95339.78;;;2.52;100.00
62634;BME280;48704;50.534;6.442;2023-04-02T07:30:59;95345.03;;;2.47;100.00
62634;BME280;48704;50.534;6.442;2023-04-02T07:33:26;95345.97;;;2.56;100.00
62634;BME280;48704;50.534;6.442;2023-04-02T07:35:53;95355.50;;;2.52;100.00
62634;BME280;48704;50.534;6.442;2023-04-02T07:38:19;95360.72;;;2.62;100.00
62634;BME280;48704;50.534;6.442;2023-04-02T07:40:46;95367.59;;;2.71;100.00
62634;BME280;48704;50.534;6.442;2023-04-02T07:43:11;95367.59;;;2.71;100.00
62634;BME280;48704;50.534;6.442;2023-04-02T07:45:36;95372.75;;;2.68;100.00
62634;BME280;48704;50.534;6.442;2023-04-02T07:48:06;95377.06;;;2.69;100.00
62634;BME280;48704;50.534;6.442;2023-04-02T07:50:36;95378.25;;;2.68;100.00
62634;BME280;48704;50.534;6.442;2023-04-02T07:53:04;95377.84;;;2.70;100.00
62634;BME280;48704;50.534;6.442;2023-04-02T07:55:32;95386.59;;;2.65;100.00
62634;BME280;48704;50.534;6.442;2023-04-02T07:57:58;95392.97;;;2.62;100.00
62634;BME280;48704;50.534;6.442;2023-04-02T08:00:25;95396.13;;;2.60;100.00
62634;BME280;48704;50.534;6.442;2023-04-02T08:02:54;95397.88;;;2.54;100.00
62634;BME280;48704;50.534;6.442;2023-04-02T08:05:20;95398.22;;;2.73;100.00
62634;BME280;48704;50.534;6.442;2023-04-02T08:07:53;95402.50;;;2.74;100.00
62634;BME280;48704;50.534;6.442;2023-04-02T08:10:23;95406.13;;;2.71;100.00
62634;BME280;48704;50.534;6.442;2023-04-02T08:12:48;95410.25;;;2.62;100.00
62634;BME280;48704;50.534;6.442;2023-04-02T08:15:15;95421.94;;;2.50;100.00
62634;BME280;48704;50.534;6.442;2023-04-02T08:17:41;95429.06;;;2.48;100.00
62634;BME280;48704;50.534;6.442;2023-04-02T08:20:18;95439.41;;;2.60;100.00
62634;BME280;48704;50.534;6.442;2023-04-02T08:22:46;95451.44;;;2.50;100.00
62634;BME280;48704;50.534;6.442;2023-04-02T08:25:15;95456.66;;;2.44;100.00
62634;BME280;48704;50.534;6.442;2023-04-02T08:27:42;95450.38;;;2.44;100.00
62634;BME280;48704;50.534;6.442;2023-04-02T08:30:11;95460.97;;;2.45;100.00
62634;BME280;48704;50.534;6.442;2023-04-02T08:32:37;95464.91;;;2.44;100.00
62634;BME280;48704;50.534;6.442;2023-04-02T08:35:07;95469.91;;;2.65;100.00
62634;BME280;48704;50.534;6.442;2023-04-02T08:37:37;95464.47;;;2.62;100.00
62634;BME280;48704;50.534;6.442;2023-04-02T08:40:36;95472.66;;;2.82;100.00
62634;BME280;48704;50.534;6.442;2023-04-02T08:48:35;95489.19;;;2.82;100.00
62634;BME280;48704;50.534;6.442;2023-04-02T08:51:21;95483.84;;;2.75;100.00
62634;BME280;48704;50.534;6.442;2023-04-02T08:54:32;95495.63;;;2.59;100.00
62634;BME280;48704;50.534;6.442;2023-04-02T09:00:00;95501.94;;;2.40;100.00
62634;BME280;48704;50.534;6.442;2023-04-02T09:02:39;95502.75;;;2.56;100.00
62634;BME280;48704;50.534;6.442;2023-04-02T09:05:08;95514.09;;;2.58;100.00
62634;BME280;48704;50.534;6.442;2023-04-02T09:07:41;95522.00;;;2.56;100.00
62634;BME280;48704;50.534;6.442;2023-04-02T09:10:14;95524.69;;;2.60;100.00
62634;BME280;48704;50.534;6.442;2023-04-02T09:13:04;95529.06;;;2.57;100.00
62634;BME280;48704;50.534;6.442;2023-04-02T09:16:09;95538.94;;;2.71;100.00
62634;BME280;48704;50.534;6.442;2023-04-02T09:19:46;95545.06;;;2.79;100.00
62634;BME280;48704;50.534;6.442;2023-04-02T09:22:30;95549.88;;;2.75;100.00
62634;BME280;48704;50.534;6.442;2023-04-02T09:25:26;95549.59;;;2.69;100.00
62634;BME280;48704;50.534;6.442;2023-04-02T09:28:12;95563.81;;;2.84;100.00
62634;BME280;48704;50.534;6.442;2023-04-02T09:31:55;95566.06;;;2.89;100.00
62634;BME280;48704;50.534;6.442;2023-04-02T09:35:29;95571.53;;;2.56;100.00
62634;BME280;48704;50.534;6.442;2023-04-02T09:41:30;95584.66;;;2.65;100.00
62634;BME280;48704;50.534;6.442;2023-04-02T09:44:35;95600.66;;;2.90;100.00
62634;BME280;48704;50.534;6.442;2023-04-02T09:52:20;95613.13;;;2.58;100.00
62634;BME280;48704;50.534;6.442;2023-04-02T10:02:27;95629.06;;;3.19;100.00
62634;BME280;48704;50.534;6.442;2023-04-02T10:23:17;95653.66;;;2.74;100.00
62634;BME280;48704;50.534;6.442;2023-04-02T10:31:26;95673.56;;;2.82;100.00
62634;BME280;48704;50.534;6.442;2023-04-02T10:34:00;95668.47;;;2.80;100.00
62634;BME280;48704;50.534;6.442;2023-04-02T10:36:49;95676.72;;;2.60;100.00
62634;BME280;48704;50.534;6.442;2023-04-02T10:39:36;95691.72;;;2.59;100.00
62634;BME280;48704;50.534;6.442;2023-04-02T10:44:53;95699.59;;;2.57;100.00
62634;BME280;48704;50.534;6.442;2023-04-02T10:47:41;95701.84;;;2.82;100.00
62634;BME280;48704;50.534;6.442;2023-04-02T10:53:20;95707.44;;;2.59;100.00
62634;BME280;48704;50.534;6.442;2023-04-02T10:55:54;95706.91;;;2.44;100.00
62634;BME280;48704;50.534;6.442;2023-04-02T10:58:24;95717.63;;;2.19;100.00
62634;BME280;48704;50.534;6.442;2023-04-02T11:00:54;95723.13;;;2.19;100.00
62634;BME280;48704;50.534;6.442;2023-04-02T11:03:48;95710.50;;;2.21;100.00
62634;BME280;48704;50.534;6.442;2023-04-02T11:06:23;95723.13;;;2.19;100.00
62634;BME280;48704;50.534;6.442;2023-04-02T11:08:57;95728.16;;;2.44;100.00
62634;BME280;48704;50.534;6.442;2023-04-02T11:11:28;95731.19;;;2.49;100.00
62634;BME280;48704;50.534;6.442;2023-04-02T11:14:13;95731.31;;;2.62;100.00
62634;BME280;48704;50.534;6.442;2023-04-02T11:16:40;95737.13;;;2.48;100.00
62634;BME280;48704;50.534;6.442;2023-04-02T11:21:49;95752.28;;;2.56;100.00
62634;BME280;48704;50.534;6.442;2023-04-02T11:29:31;95768.84;;;2.52;100.00
62634;BME280;48704;50.534;6.442;2023-04-02T11:32:26;95767.88;;;2.62;100.00
62634;BME280;48704;50.534;6.442;2023-04-02T11:37:40;95775.19;;;2.49;100.00
62634;BME280;48704;50.534;6.442;2023-04-02T11:42:36;95779.84;;;2.52;100.00
62634;BME280;48704;50.534;6.442;2023-04-02T11:50:31;95794.34;;;2.33;100.00
62634;BME280;48704;50.534;6.442;2023-04-02T11:55:46;95800.09;;;2.62;100.00
62634;BME280;48704;50.534;6.442;2023-04-02T11:58:47;95809.75;;;2.50;100.00
62634;BME280;48704;50.534;6.442;2023-04-02T12:01:21;95808.09;;;2.56;100.00
62634;BME280;48704;50.534;6.442;2023-04-02T12:09:46;95816.81;;;2.51;100.00
62634;BME280;48704;50.534;6.442;2023-04-02T12:12:37;95819.09;;;2.56;100.00
62634;BME280;48704;50.534;6.442;2023-04-02T12:15:33;95829.72;;;2.54;100.00
62634;BME280;48704;50.534;6.442;2023-04-02T12:18:10;95827.94;;;2.44;100.00
62634;BME280;48704;50.534;6.442;2023-04-02T12:20:37;95832.94;;;2.73;100.00
62634;BME280;48704;50.534;6.442;2023-04-02T12:23:03;95831.53;;;2.41;100.00
62634;BME280;48704;50.534;6.442;2023-04-02T12:25:36;95836.00;;;2.31;100.00
62634;BME280;48704;50.534;6.442;2023-04-02T12:28:17;95830.69;;;2.44;100.00
62634;BME280;48704;50.534;6.442;2023-04-02T12:30:45;95830.31;;;2.42;100.00
62634;BME280;48704;50.534;6.442;2023-04-02T12:35:45;95849.09;;;2.47;100.00
62634;BME280;48704;50.534;6.442;2023-04-02T12:38:41;95847.28;;;2.60;100.00
62634;BME280;48704;50.534;6.442;2023-04-02T12:41:24;95843.84;;;2.56;100.00
62634;BME280;48704;50.534;6.442;2023-04-02T12:46:40;95859.84;;;2.61;100.00
62634;BME280;48704;50.534;6.442;2023-04-02T12:49:08;95861.69;;;2.68;100.00
62634;BME280;48704;50.534;6.442;2023-04-02T12:51:37;95860.50;;;2.69;100.00
62634;BME280;48704;50.534;6.442;2023-04-02T12:54:03;95871.09;;;2.47;100.00
62634;BME280;48704;50.534;6.442;2023-04-02T12:56:29;95875.50;;;2.64;100.00
62634;BME280;48704;50.534;6.442;2023-04-02T12:58:58;95875.16;;;2.86;100.00
62634;BME280;48704;50.534;6.442;2023-04-02T13:01:26;95872.19;;;2.53;100.00
62634;BME280;48704;50.534;6.442;2023-04-02T13:04:04;95887.72;;;2.40;100.00
62634;BME280;48704;50.534;6.442;2023-04-02T13:06:30;95885.06;;;2.60;100.00
62634;BME280;48704;50.534;6.442;2023-04-02T13:08:58;95881.75;;;2.45;100.00
62634;BME280;48704;50.534;6.442;2023-04-02T13:11:53;95887.13;;;2.52;100.00
62634;BME280;48704;50.534;6.442;2023-04-02T13:14:19;95887.59;;;2.47;100.00
62634;BME280;48704;50.534;6.442;2023-04-02T13:16:46;95894.00;;;2.64;100.00
62634;BME280;48704;50.534;6.442;2023-04-02T13:19:27;95892.69;;;2.72;100.00
62634;BME280;48704;50.534;6.442;2023-04-02T13:21:55;95897.06;;;2.69;100.00
62634;BME280;48704;50.534;6.442;2023-04-02T13:24:23;95890.47;;;2.63;100.00
62634;BME280;48704;50.534;6.442;2023-04-02T13:26:52;95899.91;;;2.62;100.00
62634;BME280;48704;50.534;6.442;2023-04-02T13:31:45;95904.88;;;2.71;100.00
62634;BME280;48704;50.534;6.442;2023-04-02T13:34:10;95900.53;;;2.74;100.00
62634;BME280;48704;50.534;6.442;2023-04-02T13:36:36;95894.78;;;2.88;100.00
62634;BME280;48704;50.534;6.442;2023-04-02T13:39:01;95895.56;;;2.88;100.00
62634;BME280;48704;50.534;6.442;2023-04-02T13:41:29;95900.00;;;3.02;100.00
62634;BME280;48704;50.534;6.442;2023-04-02T13:43:57;95906.69;;;2.81;100.00
62634;BME280;48704;50.534;6.442;2023-04-02T13:46:28;95908.53;;;2.64;100.00
62634;BME280;48704;50.534;6.442;2023-04-02T13:48:55;95915.13;;;2.71;100.00
62634;BME280;48704;50.534;6.442;2023-04-02T13:51:34;95919.19;;;2.86;100.00
62634;BME280;48704;50.534;6.442;2023-04-02T13:54:00;95924.22;;;2.91;100.00
62634;BME280;48704;50.534;6.442;2023-04-02T13:56:25;95928.47;;;2.95;100.00
62634;BME280;48704;50.534;6.442;2023-04-02T13:58:51;95936.53;;;2.83;100.00
62634;BME280;48704;50.534;6.442;2023-04-02T14:01:18;95943.72;;;2.77;100.00
62634;BME280;48704;50.534;6.442;2023-04-02T14:03:44;95947.19;;;2.81;100.00
62634;BME280;48704;50.534;6.442;2023-04-02T14:06:18;95948.19;;;2.67;100.00
62634;BME280;48704;50.534;6.442;2023-04-02T14:14:22;95947.06;;;2.64;100.00
62634;BME280;48704;50.534;6.442;2023-04-02T14:25:30;95962.84;;;2.60;100.00
62634;BME280;48704;50.534;6.442;2023-04-02T14:35:55;95970.88;;;2.98;100.00
62634;BME280;48704;50.534;6.442;2023-04-02T14:40:02;95977.69;;;2.66;100.00
62634;BME280;48704;50.534;6.442;2023-04-02T14:42:43;95986.91;;;2.80;100.00
62634;BME280;48704;50.534;6.442;2023-04-02T14:45:48;95987.28;;;2.82;100.00
62634;BME280;48704;50.534;6.442;2023-04-02T14:50:52;95990.91;;;2.75;100.00
62634;BME280;48704;50.534;6.442;2023-04-02T14:53:25;95993.03;;;2.64;100.00
62634;BME280;48704;50.534;6.442;2023-04-02T14:55:55;95993.25;;;2.77;100.00
62634;BME280;48704;50.534;6.442;2023-04-02T14:58:25;96004.22;;;2.53;100.00
62634;BME280;48704;50.534;6.442;2023-04-02T15:00:57;96001.34;;;2.60;100.00
62634;BME280;48704;50.534;6.442;2023-04-02T15:03:28;95996.47;;;2.72;100.00
62634;BME280;48704;50.534;6.442;2023-04-02T15:06:01;96001.41;;;2.84;100.00
62634;BME280;48704;50.534;6.442;2023-04-02T15:11:08;96002.38;;;2.97;100.00
62634;BME280;48704;50.534;6.442;2023-04-02T15:13:38;96008.78;;;2.90;100.00
62634;BME280;48704;50.534;6.442;2023-04-02T15:16:17;96012.16;;;2.98;100.00
62634;BME280;48704;50.534;6.442;2023-04-02T15:18:44;96007.03;;;3.00;100.00
62634;BME280;48704;50.534;6.442;2023-04-02T15:26:35;96016.72;;;2.85;100.00
62634;BME280;48704;50.534;6.442;2023-04-02T15:31:44;96021.09;;;2.82;100.00
62634;BME280;48704;50.534;6.442;2023-04-02T15:34:27;96021.75;;;2.90;100.00
62634;BME280;48704;50.534;6.442;2023-04-02T15:37:18;96034.44;;;2.84;100.00
62634;BME280;48704;50.534;6.442;2023-04-02T15:42:40;96035.72;;;2.76;100.00
62634;BME280;48704;50.534;6.442;2023-04-02T15:45:28;96035.34;;;2.74;100.00
62634;BME280;48704;50.534;6.442;2023-04-02T15:48:10;96036.56;;;2.73;100.00
62634;BME280;48704;50.534;6.442;2023-04-02T15:59:39;96049.13;;;2.74;100.00
62634;BME280;48704;50.534;6.442;2023-04-02T16:02:31;96054.66;;;2.70;100.00
62634;BME280;48704;50.534;6.442;2023-04-02T16:05:16;96058.94;;;2.75;100.00
62634;BME280;48704;50.534;6.442;2023-04-02T16:08:09;96070.34;;;2.73;100.00
62634;BME280;48704;50.534;6.442;2023-04-02T16:10:41;96060.22;;;2.66;100.00
62634;BME280;48704;50.534;6.442;2023-04-02T16:13:21;96078.66;;;2.69;100.00
62634;BME280;48704;50.534;6.442;2023-04-02T16:16:08;96079.22;;;2.57;100.00
62634;BME280;48704;50.534;6.442;2023-04-02T16:19:04;96079.88;;;2.65;100.00
62634;BME280;48704;50.534;6.442;2023-04-02T16:21:37;96087.28;;;2.72;100.00
62634;BME280;48704;50.534;6.442;2023-04-02T16:24:10;96079.69;;;2.52;100.00
62634;BME280;48704;50.534;6.442;2023-04-02T16:27:13;96088.19;;;2.61;100.00
62634;BME280;48704;50.534;6.442;2023-04-02T16:32:30;96097.13;;;2.69;100.00
62634;BME280;48704;50.534;6.442;2023-04-02T16:37:50;96112.81;;;2.42;100.00
62634;BME280;48704;50.534;6.442;2023-04-02T16:40:35;96107.75;;;2.40;100.00
62634;BME280;48704;50.534;6.442;2023-04-02T16:43:20;96111.19;;;2.48;100.00
62634;BME280;48704;50.534;6.442;2023-04-02T16:53:54;96130.03;;;2.15;100.00
62634;BME280;48704;50.534;6.442;2023-04-02T17:07:33;96153.75;;;1.98;100.00
62634;BME280;48704;50.534;6.442;2023-04-02T17:10:09;96150.56;;;2.04;100.00
62634;BME280;48704;50.534;6.442;2023-04-02T17:12:44;96159.13;;;2.13;100.00
62634;BME280;48704;50.534;6.442;2023-04-02T17:15:19;96158.22;;;2.23;100.00
62634;BME280;48704;50.534;6.442;2023-04-02T17:17:45;96168.63;;;2.05;100.00